Terminal Aerodrome Forecast
Issued by NWS

Home | Current Version | Previous Version | Text Only | Print | Product List | Glossary On
Versions: 1 2 3 4 5 6 7 8 9 10 11 12
000
FTUS46 KOTX 312324
TAFSFF
TAF
KSFF 312324Z 0100/0124 23008KT P6SM SKC
     FM010500 VRB03KT P6SM SCT150 BKN200
     FM012000 23007KT P6SM SCT150 OVC200=

USA.gov is the U.S. government's official web portal to all federal, state and local government web resources and services.